sensor_id;sensor_type;location;lat;lon;timestamp;pressure;altitude;pressure_sealevel;temperature
66372;BMP180;53168;51.146;17.120;2024-02-16T00:10:50;100477.80;;;8.70
66372;BMP180;53168;51.146;17.120;2024-02-16T00:13:25;100478.00;;;8.70
66372;BMP180;53168;51.146;17.120;2024-02-16T00:16:03;100470.20;;;8.70
66372;BMP180;53168;51.146;17.120;2024-02-16T00:18:38;100469.00;;;8.70
66372;BMP180;53168;51.146;17.120;2024-02-16T00:21:13;100467.20;;;8.70
66372;BMP180;53168;51.146;17.120;2024-02-16T00:23:50;100468.40;;;8.70
66372;BMP180;53168;51.146;17.120;2024-02-16T00:26:25;100466.00;;;8.60
66372;BMP180;53168;51.146;17.120;2024-02-16T00:29:03;100456.20;;;8.60
66372;BMP180;53168;51.146;17.120;2024-02-16T00:31:38;100461.60;;;8.50
66372;BMP180;53168;51.146;17.120;2024-02-16T00:34:13;100456.80;;;8.50
66372;BMP180;53168;51.146;17.120;2024-02-16T00:36:49;100456.40;;;8.40
66372;BMP180;53168;51.146;17.120;2024-02-16T00:39:23;100459.20;;;8.32
66372;BMP180;53168;51.146;17.120;2024-02-16T00:42:05;100460.80;;;8.30
66372;BMP180;53168;51.146;17.120;2024-02-16T00:44:40;100469.20;;;8.20
66372;BMP180;53168;51.146;17.120;2024-02-16T00:47:15;100470.60;;;8.10
66372;BMP180;53168;51.146;17.120;2024-02-16T00:49:50;100466.00;;;8.00
66372;BMP180;53168;51.146;17.120;2024-02-16T00:52:25;100460.20;;;7.90
66372;BMP180;53168;51.146;17.120;2024-02-16T00:55:00;100461.20;;;7.80
66372;BMP180;53168;51.146;17.120;2024-02-16T00:57:37;100466.40;;;7.78
66372;BMP180;53168;51.146;17.120;2024-02-16T01:00:15;100465.20;;;7.70
66372;BMP180;53168;51.146;17.120;2024-02-16T01:02:51;100465.60;;;7.70
66372;BMP180;53168;51.146;17.120;2024-02-16T01:05:27;100467.20;;;7.60
66372;BMP180;53168;51.146;17.120;2024-02-16T01:08:05;100469.40;;;7.52
66372;BMP180;53168;51.146;17.120;2024-02-16T01:10:40;100466.60;;;7.50
66372;BMP180;53168;51.146;17.120;2024-02-16T01:13:16;100465.80;;;7.50
66372;BMP180;53168;51.146;17.120;2024-02-16T01:15:52;100460.40;;;7.40
66372;BMP180;53168;51.146;17.120;2024-02-16T01:18:29;100459.60;;;7.40
66372;BMP180;53168;51.146;17.120;2024-02-16T01:21:06;100457.40;;;7.30
66372;BMP180;53168;51.146;17.120;2024-02-16T01:23:42;100458.60;;;7.30
66372;BMP180;53168;51.146;17.120;2024-02-16T01:26:19;100456.20;;;7.30
66372;BMP180;53168;51.146;17.120;2024-02-16T01:28:55;100456.80;;;7.30
66372;BMP180;53168;51.146;17.120;2024-02-16T01:31:31;100453.00;;;7.30
66372;BMP180;53168;51.146;17.120;2024-02-16T01:34:07;100448.40;;;7.30
66372;BMP180;53168;51.146;17.120;2024-02-16T01:36:42;100448.40;;;7.30
66372;BMP180;53168;51.146;17.120;2024-02-16T01:39:19;100443.40;;;7.30
66372;BMP180;53168;51.146;17.120;2024-02-16T01:41:54;100447.00;;;7.30
66372;BMP180;53168;51.146;17.120;2024-02-16T01:44:29;100450.40;;;7.30
66372;BMP180;53168;51.146;17.120;2024-02-16T01:47:03;100450.60;;;7.30
66372;BMP180;53168;51.146;17.120;2024-02-16T01:49:39;100442.40;;;7.30
66372;BMP180;53168;51.146;17.120;2024-02-16T01:52:17;100442.00;;;7.30
66372;BMP180;53168;51.146;17.120;2024-02-16T01:54:52;100444.00;;;7.30
66372;BMP180;53168;51.146;17.120;2024-02-16T01:57:27;100435.80;;;7.30
66372;BMP180;53168;51.146;17.120;2024-02-16T02:00:02;100433.40;;;7.30
66372;BMP180;53168;51.146;17.120;2024-02-16T02:02:40;100434.60;;;7.20
66372;BMP180;53168;51.146;17.120;2024-02-16T02:05:15;100429.20;;;7.20
66372;BMP180;53168;51.146;17.120;2024-02-16T02:07:50;100422.60;;;7.20
66372;BMP180;53168;51.146;17.120;2024-02-16T02:10:26;100414.20;;;7.10
66372;BMP180;53168;51.146;17.120;2024-02-16T02:13:00;100410.60;;;7.10
66372;BMP180;53168;51.146;17.120;2024-02-16T02:15:35;100412.20;;;7.10
66372;BMP180;53168;51.146;17.120;2024-02-16T02:18:11;100412.20;;;7.10
66372;BMP180;53168;51.146;17.120;2024-02-16T02:20:46;100407.80;;;7.10
66372;BMP180;53168;51.146;17.120;2024-02-16T02:23:21;100396.20;;;7.10
66372;BMP180;53168;51.146;17.120;2024-02-16T02:25:55;100393.40;;;7.12
66372;BMP180;53168;51.146;17.120;2024-02-16T02:28:30;100396.60;;;7.16
66372;BMP180;53168;51.146;17.120;2024-02-16T02:31:06;100391.60;;;7.10
66372;BMP180;53168;51.146;17.120;2024-02-16T02:33:42;100396.80;;;7.10
66372;BMP180;53168;51.146;17.120;2024-02-16T02:36:17;100390.20;;;7.02
66372;BMP180;53168;51.146;17.120;2024-02-16T02:38:52;100395.20;;;7.00
66372;BMP180;53168;51.146;17.120;2024-02-16T02:41:26;100392.60;;;7.00
66372;BMP180;53168;51.146;17.120;2024-02-16T02:44:00;100394.80;;;7.00
66372;BMP180;53168;51.146;17.120;2024-02-16T02:46:35;100385.40;;;7.00
66372;BMP180;53168;51.146;17.120;2024-02-16T02:49:37;100388.40;;;7.00
66372;BMP180;53168;51.146;17.120;2024-02-16T02:52:13;100389.80;;;7.00
66372;BMP180;53168;51.146;17.120;2024-02-16T02:54:50;100385.00;;;7.00
66372;BMP180;53168;51.146;17.120;2024-02-16T02:57:24;100389.20;;;7.00
66372;BMP180;53168;51.146;17.120;2024-02-16T03:00:07;100389.20;;;7.00
66372;BMP180;53168;51.146;17.120;2024-02-16T03:02:45;100396.60;;;6.90
66372;BMP180;53168;51.146;17.120;2024-02-16T03:05:20;100401.60;;;6.88
66372;BMP180;53168;51.146;17.120;2024-02-16T03:07:55;100395.60;;;6.82
66372;BMP180;53168;51.146;17.120;2024-02-16T03:10:32;100398.20;;;6.90
66372;BMP180;53168;51.146;17.120;2024-02-16T03:13:08;100400.60;;;6.90
66372;BMP180;53168;51.146;17.120;2024-02-16T03:15:42;100396.40;;;6.90
66372;BMP180;53168;51.146;17.120;2024-02-16T03:18:17;100400.60;;;6.80
66372;BMP180;53168;51.146;17.120;2024-02-16T03:20:52;100405.60;;;6.80
66372;BMP180;53168;51.146;17.120;2024-02-16T03:23:27;100403.60;;;6.80
66372;BMP180;53168;51.146;17.120;2024-02-16T03:26:02;100406.40;;;6.72
66372;BMP180;53168;51.146;17.120;2024-02-16T03:28:37;100411.60;;;6.70
66372;BMP180;53168;51.146;17.120;2024-02-16T03:31:34;100408.20;;;6.70
66372;BMP180;53168;51.146;17.120;2024-02-16T03:34:11;100407.40;;;6.70
66372;BMP180;53168;51.146;17.120;2024-02-16T03:36:46;100410.40;;;6.70
66372;BMP180;53168;51.146;17.120;2024-02-16T03:39:22;100411.20;;;6.70
66372;BMP180;53168;51.146;17.120;2024-02-16T03:42:00;100408.00;;;6.62
66372;BMP180;53168;51.146;17.120;2024-02-16T03:44:35;100397.40;;;6.60
66372;BMP180;53168;51.146;17.120;2024-02-16T03:47:11;100398.80;;;6.62
66372;BMP180;53168;51.146;17.120;2024-02-16T03:49:46;100396.80;;;6.60
66372;BMP180;53168;51.146;17.120;2024-02-16T03:52:25;100399.60;;;6.60
66372;BMP180;53168;51.146;17.120;2024-02-16T03:56:34;100401.20;;;6.60
66372;BMP180;53168;51.146;17.120;2024-02-16T03:59:09;100396.80;;;6.60
66372;BMP180;53168;51.146;17.120;2024-02-16T04:01:44;100398.60;;;6.60
66372;BMP180;53168;51.146;17.120;2024-02-16T04:04:21;100399.20;;;6.50
66372;BMP180;53168;51.146;17.120;2024-02-16T04:06:56;100402.40;;;6.50
66372;BMP180;53168;51.146;17.120;2024-02-16T04:09:31;100405.80;;;6.50
66372;BMP180;53168;51.146;17.120;2024-02-16T04:12:08;100401.80;;;6.40
66372;BMP180;53168;51.146;17.120;2024-02-16T04:14:43;100401.60;;;6.40
66372;BMP180;53168;51.146;17.120;2024-02-16T04:17:19;100401.40;;;6.40
66372;BMP180;53168;51.146;17.120;2024-02-16T04:19:56;100402.80;;;6.40
66372;BMP180;53168;51.146;17.120;2024-02-16T04:22:31;100403.40;;;6.40
66372;BMP180;53168;51.146;17.120;2024-02-16T04:25:11;100403.80;;;6.30
66372;BMP180;53168;51.146;17.120;2024-02-16T04:27:46;100398.40;;;6.30
66372;BMP180;53168;51.146;17.120;2024-02-16T04:30:23;100394.60;;;6.20
66372;BMP180;53168;51.146;17.120;2024-02-16T04:33:00;100388.00;;;6.16
66372;BMP180;53168;51.146;17.120;2024-02-16T04:35:35;100387.20;;;6.10
66372;BMP180;53168;51.146;17.120;2024-02-16T04:38:10;100395.40;;;6.10
66372;BMP180;53168;51.146;17.120;2024-02-16T04:40:45;100396.40;;;6.08
66372;BMP180;53168;51.146;17.120;2024-02-16T04:43:19;100398.40;;;6.00
66372;BMP180;53168;51.146;17.120;2024-02-16T04:45:54;100397.40;;;5.90
66372;BMP180;53168;51.146;17.120;2024-02-16T04:48:30;100401.60;;;5.90
66372;BMP180;53168;51.146;17.120;2024-02-16T04:51:07;100394.20;;;5.90
66372;BMP180;53168;51.146;17.120;2024-02-16T04:53:42;100394.40;;;5.90
66372;BMP180;53168;51.146;17.120;2024-02-16T04:56:19;100395.80;;;5.80
66372;BMP180;53168;51.146;17.120;2024-02-16T04:58:59;100395.00;;;5.80
66372;BMP180;53168;51.146;17.120;2024-02-16T05:01:33;100395.00;;;5.80
66372;BMP180;53168;51.146;17.120;2024-02-16T05:04:08;100388.40;;;5.76
66372;BMP180;53168;51.146;17.120;2024-02-16T05:06:43;100387.80;;;5.70
66372;BMP180;53168;51.146;17.120;2024-02-16T05:09:18;100384.60;;;5.70
66372;BMP180;53168;51.146;17.120;2024-02-16T05:11:53;100380.20;;;5.70
66372;BMP180;53168;51.146;17.120;2024-02-16T05:14:31;100380.80;;;5.70
66372;BMP180;53168;51.146;17.120;2024-02-16T05:17:06;100384.00;;;5.70
66372;BMP180;53168;51.146;17.120;2024-02-16T05:19:40;100384.60;;;5.66
66372;BMP180;53168;51.146;17.120;2024-02-16T05:22:15;100382.60;;;5.60
66372;BMP180;53168;51.146;17.120;2024-02-16T05:24:51;100373.00;;;5.60
66372;BMP180;53168;51.146;17.120;2024-02-16T05:27:26;100372.80;;;5.60
66372;BMP180;53168;51.146;17.120;2024-02-16T05:30:01;100368.00;;;5.52
66372;BMP180;53168;51.146;17.120;2024-02-16T05:32:38;100372.80;;;5.56
66372;BMP180;53168;51.146;17.120;2024-02-16T05:35:13;100370.80;;;5.60
66372;BMP180;53168;51.146;17.120;2024-02-16T05:37:51;100372.00;;;5.60
66372;BMP180;53168;51.146;17.120;2024-02-16T05:40:26;100379.80;;;5.50
66372;BMP180;53168;51.146;17.120;2024-02-16T05:43:03;100374.40;;;5.50
66372;BMP180;53168;51.146;17.120;2024-02-16T05:45:37;100378.00;;;5.50
66372;BMP180;53168;51.146;17.120;2024-02-16T05:48:17;100378.60;;;5.50
66372;BMP180;53168;51.146;17.120;2024-02-16T05:50:59;100377.80;;;5.50
66372;BMP180;53168;51.146;17.120;2024-02-16T05:53:36;100376.20;;;5.48
66372;BMP180;53168;51.146;17.120;2024-02-16T05:56:37;100378.00;;;5.50
66372;BMP180;53168;51.146;17.120;2024-02-16T05:59:12;100376.00;;;5.50
66372;BMP180;53168;51.146;17.120;2024-02-16T06:01:47;100376.00;;;5.50
66372;BMP180;53168;51.146;17.120;2024-02-16T06:04:21;100379.20;;;5.50
66372;BMP180;53168;51.146;17.120;2024-02-16T06:06:56;100373.60;;;5.50
66372;BMP180;53168;51.146;17.120;2024-02-16T06:12:10;100387.00;;;5.50
66372;BMP180;53168;51.146;17.120;2024-02-16T06:14:46;100385.60;;;5.50
66372;BMP180;53168;51.146;17.120;2024-02-16T06:17:21;100389.00;;;5.50
66372;BMP180;53168;51.146;17.120;2024-02-16T06:19:55;100376.40;;;5.50
66372;BMP180;53168;51.146;17.120;2024-02-16T06:22:30;100374.60;;;5.60
66372;BMP180;53168;51.146;17.120;2024-02-16T06:25:07;100377.40;;;5.60
66372;BMP180;53168;51.146;17.120;2024-02-16T06:27:42;100373.00;;;5.60
66372;BMP180;53168;51.146;17.120;2024-02-16T06:30:18;100374.60;;;5.70
66372;BMP180;53168;51.146;17.120;2024-02-16T06:32:54;100381.00;;;5.70
66372;BMP180;53168;51.146;17.120;2024-02-16T06:35:30;100382.00;;;5.78
66372;BMP180;53168;51.146;17.120;2024-02-16T06:38:05;100385.00;;;5.80
66372;BMP180;53168;51.146;17.120;2024-02-16T06:40:42;100382.80;;;5.80
66372;BMP180;53168;51.146;17.120;2024-02-16T06:43:19;100380.20;;;5.88
66372;BMP180;53168;51.146;17.120;2024-02-16T06:45:53;100377.60;;;5.90
66372;BMP180;53168;51.146;17.120;2024-02-16T06:48:31;100377.20;;;6.00
66372;BMP180;53168;51.146;17.120;2024-02-16T06:51:07;100373.20;;;6.10
66372;BMP180;53168;51.146;17.120;2024-02-16T06:53:46;100379.00;;;6.20
66372;BMP180;53168;51.146;17.120;2024-02-16T06:56:21;100387.80;;;6.30
66372;BMP180;53168;51.146;17.120;2024-02-16T06:58:56;100397.60;;;6.32
66372;BMP180;53168;51.146;17.120;2024-02-16T07:01:30;100397.20;;;6.40
66372;BMP180;53168;51.146;17.120;2024-02-16T07:04:06;100397.20;;;6.40
66372;BMP180;53168;51.146;17.120;2024-02-16T07:06:41;100403.00;;;6.50
66372;BMP180;53168;51.146;17.120;2024-02-16T07:09:17;100396.80;;;6.50
66372;BMP180;53168;51.146;17.120;2024-02-16T07:11:52;100400.80;;;6.50
66372;BMP180;53168;51.146;17.120;2024-02-16T07:14:28;100411.80;;;6.50
66372;BMP180;53168;51.146;17.120;2024-02-16T07:17:03;100410.40;;;6.60
66372;BMP180;53168;51.146;17.120;2024-02-16T07:19:40;100410.60;;;6.70
66372;BMP180;53168;51.146;17.120;2024-02-16T07:22:15;100410.00;;;6.80
66372;BMP180;53168;51.146;17.120;2024-02-16T07:24:50;100414.00;;;6.90
66372;BMP180;53168;51.146;17.120;2024-02-16T07:27:25;100410.20;;;7.00
66372;BMP180;53168;51.146;17.120;2024-02-16T07:30:00;100414.00;;;7.10
66372;BMP180;53168;51.146;17.120;2024-02-16T07:32:37;100401.40;;;7.12
66372;BMP180;53168;51.146;17.120;2024-02-16T07:35:19;100402.80;;;7.20
66372;BMP180;53168;51.146;17.120;2024-02-16T07:38:13;100403.80;;;7.40
66372;BMP180;53168;51.146;17.120;2024-02-16T07:54:57;100402.80;;;8.22
66372;BMP180;53168;51.146;17.120;2024-02-16T07:57:29;100400.20;;;8.50
66372;BMP180;53168;51.146;17.120;2024-02-16T08:00:08;100406.80;;;8.60
66372;BMP180;53168;51.146;17.120;2024-02-16T08:02:40;100403.80;;;8.70
66372;BMP180;53168;51.146;17.120;2024-02-16T08:05:17;100405.80;;;8.80
66372;BMP180;53168;51.146;17.120;2024-02-16T08:07:48;100404.60;;;8.94
66372;BMP180;53168;51.146;17.120;2024-02-16T08:10:21;100402.40;;;9.10
66372;BMP180;53168;51.146;17.120;2024-02-16T08:12:51;100399.80;;;9.10
66372;BMP180;53168;51.146;17.120;2024-02-16T08:15:23;100403.60;;;9.20
66372;BMP180;53168;51.146;17.120;2024-02-16T08:17:54;100404.00;;;9.36
66372;BMP180;53168;51.146;17.120;2024-02-16T08:20:25;100398.20;;;9.50
66372;BMP180;53168;51.146;17.120;2024-02-16T08:22:56;100405.80;;;9.58
66372;BMP180;53168;51.146;17.120;2024-02-16T08:25:27;100398.40;;;9.70
66372;BMP180;53168;51.146;17.120;2024-02-16T08:27:59;100392.20;;;9.80
66372;BMP180;53168;51.146;17.120;2024-02-16T08:30:30;100387.60;;;9.90
66372;BMP180;53168;51.146;17.120;2024-02-16T08:33:01;100388.00;;;10.00
66372;BMP180;53168;51.146;17.120;2024-02-16T08:35:31;100383.60;;;10.10
66372;BMP180;53168;51.146;17.120;2024-02-16T08:38:02;100380.60;;;10.20
66372;BMP180;53168;51.146;17.120;2024-02-16T08:40:33;100380.80;;;10.40
66372;BMP180;53168;51.146;17.120;2024-02-16T08:43:04;100371.40;;;10.50
66372;BMP180;53168;51.146;17.120;2024-02-16T08:45:37;100371.20;;;10.72
66372;BMP180;53168;51.146;17.120;2024-02-16T08:48:13;100369.20;;;10.98
66372;BMP180;53168;51.146;17.120;2024-02-16T08:50:46;100367.60;;;11.22
66372;BMP180;53168;51.146;17.120;2024-02-16T08:53:20;100365.80;;;11.50
66372;BMP180;53168;51.146;17.120;2024-02-16T08:55:55;100362.40;;;11.76
66372;BMP180;53168;51.146;17.120;2024-02-16T08:58:26;100354.20;;;12.00
66372;BMP180;53168;51.146;17.120;2024-02-16T09:00:59;100356.00;;;12.30
66372;BMP180;53168;51.146;17.120;2024-02-16T09:03:36;100359.00;;;12.22
66372;BMP180;53168;51.146;17.120;2024-02-16T09:06:45;100359.00;;;12.20
66372;BMP180;53168;51.146;17.120;2024-02-16T09:13:40;100360.40;;;12.30
66372;BMP180;53168;51.146;17.120;2024-02-16T09:17:02;100355.60;;;12.50
66372;BMP180;53168;51.146;17.120;2024-02-16T09:19:57;100354.00;;;12.80
66372;BMP180;53168;51.146;17.120;2024-02-16T09:23:16;100355.20;;;13.00
66372;BMP180;53168;51.146;17.120;2024-02-16T09:30:43;100359.00;;;13.30
66372;BMP180;53168;51.146;17.120;2024-02-16T09:34:03;100360.40;;;13.40
66372;BMP180;53168;51.146;17.120;2024-02-16T09:37:00;100362.60;;;13.30
66372;BMP180;53168;51.146;17.120;2024-02-16T09:42:47;100364.40;;;13.10
66372;BMP180;53168;51.146;17.120;2024-02-16T09:45:28;100360.00;;;12.92
66372;BMP180;53168;51.146;17.120;2024-02-16T09:48:11;100357.20;;;12.80
66372;BMP180;53168;51.146;17.120;2024-02-16T09:51:07;100362.40;;;12.60
66372;BMP180;53168;51.146;17.120;2024-02-16T09:54:01;100364.40;;;12.40
66372;BMP180;53168;51.146;17.120;2024-02-16T09:56:55;100369.80;;;12.30
66372;BMP180;53168;51.146;17.120;2024-02-16T09:59:40;100365.20;;;12.22
66372;BMP180;53168;51.146;17.120;2024-02-16T10:02:40;100368.80;;;12.20
66372;BMP180;53168;51.146;17.120;2024-02-16T10:05:52;100364.60;;;12.28
66372;BMP180;53168;51.146;17.120;2024-02-16T10:08:55;100363.40;;;12.40
66372;BMP180;53168;51.146;17.120;2024-02-16T10:11:48;100363.60;;;12.70
66372;BMP180;53168;51.146;17.120;2024-02-16T10:14:40;100369.60;;;12.82
66372;BMP180;53168;51.146;17.120;2024-02-16T10:17:41;100364.20;;;13.10
66372;BMP180;53168;51.146;17.120;2024-02-16T10:24:12;100366.20;;;13.60
66372;BMP180;53168;51.146;17.120;2024-02-16T10:27:22;100360.60;;;13.78
66372;BMP180;53168;51.146;17.120;2024-02-16T10:30:29;100359.60;;;14.00
66372;BMP180;53168;51.146;17.120;2024-02-16T10:41:08;100362.00;;;14.48
66372;BMP180;53168;51.146;17.120;2024-02-16T10:48:48;100346.40;;;14.78
66372;BMP180;53168;51.146;17.120;2024-02-16T10:52:24;100346.60;;;14.90
66372;BMP180;53168;51.146;17.120;2024-02-16T10:55:50;100338.40;;;15.10
66372;BMP180;53168;51.146;17.120;2024-02-16T11:03:21;100324.40;;;15.30
66372;BMP180;53168;51.146;17.120;2024-02-16T11:06:35;100322.20;;;15.50
66372;BMP180;53168;51.146;17.120;2024-02-16T11:09:53;100316.80;;;15.60
66372;BMP180;53168;51.146;17.120;2024-02-16T11:12:39;100311.60;;;15.84
66372;BMP180;53168;51.146;17.120;2024-02-16T11:15:28;100306.20;;;15.98
66372;BMP180;53168;51.146;17.120;2024-02-16T11:18:12;100308.40;;;16.10
66372;BMP180;53168;51.146;17.120;2024-02-16T11:20:53;100299.00;;;16.30
66372;BMP180;53168;51.146;17.120;2024-02-16T11:23:36;100297.80;;;16.40
66372;BMP180;53168;51.146;17.120;2024-02-16T11:26:18;100299.20;;;16.60
66372;BMP180;53168;51.146;17.120;2024-02-16T11:28:58;100294.00;;;16.80
66372;BMP180;53168;51.146;17.120;2024-02-16T11:31:47;100288.00;;;16.80
66372;BMP180;53168;51.146;17.120;2024-02-16T11:34:36;100282.80;;;16.90
66372;BMP180;53168;51.146;17.120;2024-02-16T11:37:28;100288.20;;;16.80
66372;BMP180;53168;51.146;17.120;2024-02-16T11:40:07;100287.20;;;16.80
66372;BMP180;53168;51.146;17.120;2024-02-16T11:42:44;100283.20;;;16.80
66372;BMP180;53168;51.146;17.120;2024-02-16T11:45:21;100282.60;;;16.80
66372;BMP180;53168;51.146;17.120;2024-02-16T11:48:10;100284.00;;;16.80
66372;BMP180;53168;51.146;17.120;2024-02-16T11:50:48;100284.20;;;16.80
66372;BMP180;53168;51.146;17.120;2024-02-16T11:53:23;100248.80;;;17.08
66372;BMP180;53168;51.146;17.120;2024-02-16T11:55:59;100241.00;;;18.46
66372;BMP180;53168;51.146;17.120;2024-02-16T11:58:35;100238.80;;;19.20
66372;BMP180;53168;51.146;17.120;2024-02-16T12:01:15;100235.20;;;19.68
66372;BMP180;53168;51.146;17.120;2024-02-16T12:03:49;100240.00;;;20.14
66372;BMP180;53168;51.146;17.120;2024-02-16T12:06:24;100235.20;;;20.42
66372;BMP180;53168;51.146;17.120;2024-02-16T12:08:59;100232.60;;;20.72
66372;BMP180;53168;51.146;17.120;2024-02-16T12:11:34;100235.20;;;20.92
66372;BMP180;53168;51.146;17.120;2024-02-16T12:14:11;100240.80;;;21.10
66372;BMP180;53168;51.146;17.120;2024-02-16T12:16:50;100239.60;;;21.30
66372;BMP180;53168;51.146;17.120;2024-02-16T12:19:26;100243.20;;;21.50
66372;BMP180;53168;51.146;17.120;2024-02-16T12:22:02;100243.20;;;21.60
66372;BMP180;53168;51.146;17.120;2024-02-16T12:24:36;100250.20;;;21.70
66372;BMP180;53168;51.146;17.120;2024-02-16T12:27:12;100257.60;;;21.70
66372;BMP180;53168;51.146;17.120;2024-02-16T12:29:47;100253.60;;;21.80
66372;BMP180;53168;51.146;17.120;2024-02-16T12:32:22;100250.20;;;21.90
66372;BMP180;53168;51.146;17.120;2024-02-16T12:34:56;100252.60;;;22.10
66372;BMP180;53168;51.146;17.120;2024-02-16T12:37:32;100246.80;;;22.20
66372;BMP180;53168;51.146;17.120;2024-02-16T12:40:10;100238.40;;;22.40
66372;BMP180;53168;51.146;17.120;2024-02-16T12:42:45;100255.40;;;22.28
66372;BMP180;53168;51.146;17.120;2024-02-16T12:45:22;100244.00;;;22.00
66372;BMP180;53168;51.146;17.120;2024-02-16T12:48:00;100235.40;;;22.18
66372;BMP180;53168;51.146;17.120;2024-02-16T12:50:35;100243.80;;;22.22
66372;BMP180;53168;51.146;17.120;2024-02-16T12:53:12;100240.00;;;22.10
66372;BMP180;53168;51.146;17.120;2024-02-16T12:55:48;100245.40;;;22.26
66372;BMP180;53168;51.146;17.120;2024-02-16T12:58:22;100245.60;;;22.30
66372;BMP180;53168;51.146;17.120;2024-02-16T13:00:57;100247.40;;;22.30
66372;BMP180;53168;51.146;17.120;2024-02-16T13:03:43;100242.80;;;22.50
66372;BMP180;53168;51.146;17.120;2024-02-16T13:06:17;100239.40;;;22.66
66372;BMP180;53168;51.146;17.120;2024-02-16T13:08:59;100236.00;;;22.80
66372;BMP180;53168;51.146;17.120;2024-02-16T13:11:39;100235.80;;;22.90
66372;BMP180;53168;51.146;17.120;2024-02-16T13:14:15;100237.60;;;23.20
66372;BMP180;53168;51.146;17.120;2024-02-16T13:16:51;100239.40;;;23.50
66372;BMP180;53168;51.146;17.120;2024-02-16T13:19:25;100235.40;;;23.60
66372;BMP180;53168;51.146;17.120;2024-02-16T13:22:01;100239.00;;;23.50
66372;BMP180;53168;51.146;17.120;2024-02-16T13:24:41;100239.60;;;23.50
66372;BMP180;53168;51.146;17.120;2024-02-16T13:27:17;100240.40;;;23.40
66372;BMP180;53168;51.146;17.120;2024-02-16T13:29:54;100240.60;;;23.30
66372;BMP180;53168;51.146;17.120;2024-02-16T13:32:29;100245.60;;;23.30
66372;BMP180;53168;51.146;17.120;2024-02-16T13:35:07;100243.60;;;23.20
66372;BMP180;53168;51.146;17.120;2024-02-16T13:37:42;100246.00;;;23.30
66372;BMP180;53168;51.146;17.120;2024-02-16T13:40:16;100244.60;;;23.36
66372;BMP180;53168;51.146;17.120;2024-02-16T13:42:52;100254.20;;;23.26
66372;BMP180;53168;51.146;17.120;2024-02-16T13:45:28;100251.40;;;22.64
66372;BMP180;53168;51.146;17.120;2024-02-16T13:48:12;100256.80;;;21.70
66372;BMP180;53168;51.146;17.120;2024-02-16T13:50:49;100248.40;;;20.64
66372;BMP180;53168;51.146;17.120;2024-02-16T13:53:34;100247.20;;;19.86
66372;BMP180;53168;51.146;17.120;2024-02-16T13:56:09;100253.00;;;19.18
66372;BMP180;53168;51.146;17.120;2024-02-16T13:58:44;100247.00;;;19.00
66372;BMP180;53168;51.146;17.120;2024-02-16T14:01:23;100256.40;;;18.64
66372;BMP180;53168;51.146;17.120;2024-02-16T14:04:01;100251.60;;;18.60
66372;BMP180;53168;51.146;17.120;2024-02-16T14:06:36;100248.20;;;18.60
66372;BMP180;53168;51.146;17.120;2024-02-16T14:09:13;100247.80;;;19.14
66372;BMP180;53168;51.146;17.120;2024-02-16T14:12:02;100254.20;;;19.60
66372;BMP180;53168;51.146;17.120;2024-02-16T14:14:36;100253.60;;;19.70
66372;BMP180;53168;51.146;17.120;2024-02-16T14:17:11;100257.60;;;19.30
66372;BMP180;53168;51.146;17.120;2024-02-16T14:19:45;100257.40;;;18.68
66372;BMP180;53168;51.146;17.120;2024-02-16T14:22:20;100252.60;;;18.08
66372;BMP180;53168;51.146;17.120;2024-02-16T14:25:06;100257.20;;;17.54
66372;BMP180;53168;51.146;17.120;2024-02-16T14:27:45;100256.00;;;17.10
66372;BMP180;53168;51.146;17.120;2024-02-16T14:30:23;100259.80;;;16.64
66372;BMP180;53168;51.146;17.120;2024-02-16T14:33:39;100260.80;;;16.30
66372;BMP180;53168;51.146;17.120;2024-02-16T14:36:57;100255.00;;;15.98
66372;BMP180;53168;51.146;17.120;2024-02-16T14:39:43;100251.20;;;15.70
66372;BMP180;53168;51.146;17.120;2024-02-16T14:42:49;100249.40;;;15.50
66372;BMP180;53168;51.146;17.120;2024-02-16T14:45:42;100248.80;;;15.40
66372;BMP180;53168;51.146;17.120;2024-02-16T14:48:29;100244.40;;;15.30
66372;BMP180;53168;51.146;17.120;2024-02-16T14:51:08;100247.00;;;15.30
66372;BMP180;53168;51.146;17.120;2024-02-16T14:54:05;100245.80;;;15.40
66372;BMP180;53168;51.146;17.120;2024-02-16T14:57:10;100240.40;;;15.40
66372;BMP180;53168;51.146;17.120;2024-02-16T15:00:20;100242.60;;;15.32
66372;BMP180;53168;51.146;17.120;2024-02-16T15:03:49;100244.80;;;15.30
66372;BMP180;53168;51.146;17.120;2024-02-16T15:06:42;100244.80;;;15.30
66372;BMP180;53168;51.146;17.120;2024-02-16T15:09:40;100243.80;;;15.20
66372;BMP180;53168;51.146;17.120;2024-02-16T15:12:35;100248.80;;;15.10
66372;BMP180;53168;51.146;17.120;2024-02-16T15:15:28;100243.00;;;15.00
66372;BMP180;53168;51.146;17.120;2024-02-16T15:18:13;100246.60;;;14.80
66372;BMP180;53168;51.146;17.120;2024-02-16T15:21:09;100248.40;;;14.62
66372;BMP180;53168;51.146;17.120;2024-02-16T15:24:11;100255.80;;;14.50
66372;BMP180;53168;51.146;17.120;2024-02-16T15:26:51;100248.80;;;14.34
66372;BMP180;53168;51.146;17.120;2024-02-16T15:29:43;100251.80;;;14.20
66372;BMP180;53168;51.146;17.120;2024-02-16T15:32:34;100255.00;;;14.10
66372;BMP180;53168;51.146;17.120;2024-02-16T15:35:34;100251.40;;;14.00
66372;BMP180;53168;51.146;17.120;2024-02-16T15:38:48;100247.40;;;13.90
66372;BMP180;53168;51.146;17.120;2024-02-16T15:42:07;100254.20;;;13.80
66372;BMP180;53168;51.146;17.120;2024-02-16T15:45:00;100253.00;;;13.70
66372;BMP180;53168;51.146;17.120;2024-02-16T15:48:27;100254.40;;;13.60
66372;BMP180;53168;51.146;17.120;2024-02-16T15:52:59;100255.20;;;13.50
66372;BMP180;53168;51.146;17.120;2024-02-16T15:56:14;100256.00;;;13.40
66372;BMP180;53168;51.146;17.120;2024-02-16T15:59:18;100255.20;;;13.30
66372;BMP180;53168;51.146;17.120;2024-02-16T16:17:46;100273.20;;;13.04
66372;BMP180;53168;51.146;17.120;2024-02-16T16:20:38;100273.80;;;13.00
66372;BMP180;53168;51.146;17.120;2024-02-16T16:23:18;100276.00;;;12.98
66372;BMP180;53168;51.146;17.120;2024-02-16T16:26:12;100266.80;;;12.90